sensor_id;sensor_type;location;lat;lon;timestamp;pressure;altitude;pressure_sealevel;temperature;humidity
75414;BME280;64758;52.122;5.404;2024-03-08T00:00:34;102108.69;;;2.51;100.00
75414;BME280;64758;52.122;5.404;2024-03-08T00:03:01;102106.38;;;2.47;100.00
75414;BME280;64758;52.122;5.404;2024-03-08T00:05:29;102099.56;;;2.45;100.00
75414;BME280;64758;52.122;5.404;2024-03-08T00:07:56;102100.50;;;2.44;100.00
75414;BME280;64758;52.122;5.404;2024-03-08T00:10:23;102103.31;;;2.41;100.00
75414;BME280;64758;52.122;5.404;2024-03-08T00:12:53;102103.44;;;2.39;100.00
75414;BME280;64758;52.122;5.404;2024-03-08T00:15:20;102103.53;;;2.38;100.00
75414;BME280;64758;52.122;5.404;2024-03-08T00:17:49;102102.06;;;2.34;100.00
75414;BME280;64758;52.122;5.404;2024-03-08T00:20:17;102102.38;;;2.29;100.00
75414;BME280;64758;52.122;5.404;2024-03-08T00:22:46;102093.88;;;2.26;100.00
75414;BME280;64758;52.122;5.404;2024-03-08T00:25:14;102103.72;;;2.22;100.00
75414;BME280;64758;52.122;5.404;2024-03-08T00:27:41;102092.59;;;2.19;100.00
75414;BME280;64758;52.122;5.404;2024-03-08T00:30:08;102097.84;;;2.19;100.00
75414;BME280;64758;52.122;5.404;2024-03-08T00:32:35;102103.09;;;2.19;100.00
75414;BME280;64758;52.122;5.404;2024-03-08T00:35:04;102094.59;;;2.15;100.00
75414;BME280;64758;52.122;5.404;2024-03-08T00:37:30;102089.44;;;2.14;100.00
75414;BME280;64758;52.122;5.404;2024-03-08T00:39:57;102081.69;;;2.12;100.00
75414;BME280;64758;52.122;5.404;2024-03-08T00:42:24;102087.88;;;2.11;100.00
75414;BME280;64758;52.122;5.404;2024-03-08T00:44:51;102082.72;;;2.10;100.00
75414;BME280;64758;52.122;5.404;2024-03-08T00:47:18;102085.56;;;2.07;100.00
75414;BME280;64758;52.122;5.404;2024-03-08T00:49:45;102080.50;;;2.04;100.00
75414;BME280;64758;52.122;5.404;2024-03-08T00:52:13;102074.66;;;2.00;100.00
75414;BME280;64758;52.122;5.404;2024-03-08T00:54:40;102069.69;;;1.96;100.00
75414;BME280;64758;52.122;5.404;2024-03-08T00:57:07;102067.94;;;1.96;100.00
75414;BME280;64758;52.122;5.404;2024-03-08T00:59:34;102055.66;;;1.97;100.00
75414;BME280;64758;52.122;5.404;2024-03-08T01:02:01;102059.34;;;1.94;100.00
75414;BME280;64758;52.122;5.404;2024-03-08T01:04:29;102056.59;;;1.96;100.00
75414;BME280;64758;52.122;5.404;2024-03-08T01:06:56;102062.78;;;1.95;100.00
75414;BME280;64758;52.122;5.404;2024-03-08T01:09:26;102044.78;;;1.90;100.00
75414;BME280;64758;52.122;5.404;2024-03-08T01:11:54;102037.84;;;1.89;100.00
75414;BME280;64758;52.122;5.404;2024-03-08T01:14:22;102037.00;;;1.89;100.00
75414;BME280;64758;52.122;5.404;2024-03-08T01:16:49;102038.06;;;1.86;100.00
75414;BME280;64758;52.122;5.404;2024-03-08T01:19:17;102036.25;;;1.87;100.00
75414;BME280;64758;52.122;5.404;2024-03-08T01:21:44;102028.59;;;1.84;100.00
75414;BME280;64758;52.122;5.404;2024-03-08T01:24:10;102034.91;;;1.81;100.00
75414;BME280;64758;52.122;5.404;2024-03-08T01:26:37;102024.72;;;1.77;100.00
75414;BME280;64758;52.122;5.404;2024-03-08T01:29:05;102029.22;;;1.75;100.00
75414;BME280;64758;52.122;5.404;2024-03-08T01:31:32;102028.38;;;1.74;100.00
75414;BME280;64758;52.122;5.404;2024-03-08T01:33:58;102022.41;;;1.72;100.00
75414;BME280;64758;52.122;5.404;2024-03-08T01:36:25;102021.56;;;1.72;100.00
75414;BME280;64758;52.122;5.404;2024-03-08T01:38:52;102009.59;;;1.68;100.00
75414;BME280;64758;52.122;5.404;2024-03-08T01:41:19;102010.66;;;1.65;100.00
75414;BME280;64758;52.122;5.404;2024-03-08T01:43:46;102006.66;;;1.60;100.00
75414;BME280;64758;52.122;5.404;2024-03-08T01:46:16;102005.91;;;1.58;100.00
75414;BME280;64758;52.122;5.404;2024-03-08T01:48:44;102004.97;;;1.59;100.00
75414;BME280;64758;52.122;5.404;2024-03-08T01:51:12;102002.34;;;1.59;100.00
75414;BME280;64758;52.122;5.404;2024-03-08T01:53:42;102003.50;;;1.55;100.00
75414;BME280;64758;52.122;5.404;2024-03-08T01:56:13;101990.63;;;1.52;100.00
75414;BME280;64758;52.122;5.404;2024-03-08T01:58:44;101990.81;;;1.49;100.00
75414;BME280;64758;52.122;5.404;2024-03-08T02:01:13;101995.44;;;1.45;100.00
75414;BME280;64758;52.122;5.404;2024-03-08T02:03:44;101999.91;;;1.43;100.00
75414;BME280;64758;52.122;5.404;2024-03-08T02:06:12;101991.41;;;1.40;100.00
75414;BME280;64758;52.122;5.404;2024-03-08T02:08:44;101994.44;;;1.34;100.00
75414;BME280;64758;52.122;5.404;2024-03-08T02:11:12;101992.75;;;1.33;100.00
75414;BME280;64758;52.122;5.404;2024-03-08T02:13:40;101985.94;;;1.30;100.00
75414;BME280;64758;52.122;5.404;2024-03-08T02:16:06;101983.53;;;1.27;100.00
75414;BME280;64758;52.122;5.404;2024-03-08T02:18:35;101987.19;;;1.25;100.00
75414;BME280;64758;52.122;5.404;2024-03-08T02:21:04;101980.50;;;1.21;100.00
75414;BME280;64758;52.122;5.404;2024-03-08T02:23:32;101977.97;;;1.20;100.00
75414;BME280;64758;52.122;5.404;2024-03-08T02:25:59;101973.84;;;1.16;100.00
75414;BME280;64758;52.122;5.404;2024-03-08T02:28:26;101974.91;;;1.13;100.00
75414;BME280;64758;52.122;5.404;2024-03-08T02:30:52;101964.66;;;1.10;100.00
75414;BME280;64758;52.122;5.404;2024-03-08T02:33:24;101960.34;;;1.09;100.00
75414;BME280;64758;52.122;5.404;2024-03-08T02:35:51;101956.25;;;1.05;100.00
75414;BME280;64758;52.122;5.404;2024-03-08T02:38:20;101962.63;;;1.01;100.00
75414;BME280;64758;52.122;5.404;2024-03-08T02:40:48;101962.63;;;1.01;100.00
75414;BME280;64758;52.122;5.404;2024-03-08T02:43:17;101955.72;;;1.00;100.00
75414;BME280;64758;52.122;5.404;2024-03-08T02:45:45;101942.72;;;0.99;100.00
75414;BME280;64758;52.122;5.404;2024-03-08T02:48:13;101947.19;;;0.97;100.00
75414;BME280;64758;52.122;5.404;2024-03-08T02:50:40;101943.75;;;0.96;100.00
75414;BME280;64758;52.122;5.404;2024-03-08T02:53:09;101937.06;;;0.92;100.00
75414;BME280;64758;52.122;5.404;2024-03-08T02:55:39;101940.41;;;0.94;100.00
75414;BME280;64758;52.122;5.404;2024-03-08T02:58:08;101930.97;;;0.92;100.00
75414;BME280;64758;52.122;5.404;2024-03-08T03:00:38;101943.22;;;0.91;100.00
75414;BME280;64758;52.122;5.404;2024-03-08T03:03:08;101934.72;;;0.88;100.00
75414;BME280;64758;52.122;5.404;2024-03-08T03:05:35;101937.34;;;0.88;100.00
75414;BME280;64758;52.122;5.404;2024-03-08T03:08:02;101929.59;;;0.86;100.00
75414;BME280;64758;52.122;5.404;2024-03-08T03:10:36;101927.19;;;0.83;100.00
75414;BME280;64758;52.122;5.404;2024-03-08T03:13:03;101924.66;;;0.82;100.00
75414;BME280;64758;52.122;5.404;2024-03-08T03:15:31;101922.03;;;0.82;100.00
75414;BME280;64758;52.122;5.404;2024-03-08T03:17:58;101925.78;;;0.78;100.00
75414;BME280;64758;52.122;5.404;2024-03-08T03:20:24;101917.50;;;0.71;100.00
75414;BME280;64758;52.122;5.404;2024-03-08T03:22:59;101918.31;;;0.72;100.00
75414;BME280;64758;52.122;5.404;2024-03-08T03:25:28;101907.88;;;0.72;100.00
75414;BME280;64758;52.122;5.404;2024-03-08T03:28:02;101907.25;;;0.68;100.00
75414;BME280;64758;52.122;5.404;2024-03-08T03:30:31;101911.63;;;0.68;100.00
75414;BME280;64758;52.122;5.404;2024-03-08T03:33:00;101903.88;;;0.66;100.00
75414;BME280;64758;52.122;5.404;2024-03-08T03:35:28;101902.94;;;0.67;100.00
75414;BME280;64758;52.122;5.404;2024-03-08T03:37:56;101900.41;;;0.66;100.00
75414;BME280;64758;52.122;5.404;2024-03-08T03:40:34;101902.41;;;0.62;100.00
75414;BME280;64758;52.122;5.404;2024-03-08T03:43:02;101905.94;;;0.61;100.00
75414;BME280;64758;52.122;5.404;2024-03-08T03:45:29;101895.56;;;0.60;100.00
75414;BME280;64758;52.122;5.404;2024-03-08T03:48:07;101894.75;;;0.59;100.00
75414;BME280;64758;52.122;5.404;2024-03-08T03:50:37;101894.00;;;0.57;100.00
75414;BME280;64758;52.122;5.404;2024-03-08T03:53:05;101890.53;;;0.57;100.00
75414;BME280;64758;52.122;5.404;2024-03-08T03:55:37;101889.72;;;0.56;100.00
75414;BME280;64758;52.122;5.404;2024-03-08T03:58:06;101893.34;;;0.54;100.00
75414;BME280;64758;52.122;5.404;2024-03-08T04:00:33;101890.84;;;0.52;100.00
75414;BME280;64758;52.122;5.404;2024-03-08T04:02:59;101889.19;;;0.51;100.00
75414;BME280;64758;52.122;5.404;2024-03-08T04:05:27;101886.66;;;0.50;100.00
75414;BME280;64758;52.122;5.404;2024-03-08T04:07:54;101892.59;;;0.52;100.00
75414;BME280;64758;52.122;5.404;2024-03-08T04:10:21;101891.03;;;0.49;100.00
75414;BME280;64758;52.122;5.404;2024-03-08T04:12:48;101881.41;;;0.50;100.00
75414;BME280;64758;52.122;5.404;2024-03-08T04:15:14;101883.94;;;0.51;100.00
75414;BME280;64758;52.122;5.404;2024-03-08T04:17:42;101876.19;;;0.50;100.00
75414;BME280;64758;52.122;5.404;2024-03-08T04:20:08;101872.75;;;0.49;100.00
75414;BME280;64758;52.122;5.404;2024-03-08T04:22:38;101866.97;;;0.44;100.00
75414;BME280;64758;52.122;5.404;2024-03-08T04:25:06;101872.09;;;0.46;100.00
75414;BME280;64758;52.122;5.404;2024-03-08T04:27:33;101869.28;;;0.49;100.00
75414;BME280;64758;52.122;5.404;2024-03-08T04:30:01;101865.09;;;0.46;100.00
75414;BME280;64758;52.122;5.404;2024-03-08T04:32:28;101865.09;;;0.46;100.00
75414;BME280;64758;52.122;5.404;2024-03-08T04:34:56;101860.16;;;0.42;100.00
75414;BME280;64758;52.122;5.404;2024-03-08T04:37:23;101860.91;;;0.44;100.00
75414;BME280;64758;52.122;5.404;2024-03-08T04:39:50;101861.94;;;0.41;100.00
75414;BME280;64758;52.122;5.404;2024-03-08T04:42:17;101860.06;;;0.43;100.00
75414;BME280;64758;52.122;5.404;2024-03-08T04:44:45;101866.03;;;0.45;100.00
75414;BME280;64758;52.122;5.404;2024-03-08T04:47:12;101865.31;;;0.43;100.00
75414;BME280;64758;52.122;5.404;2024-03-08T04:49:38;101859.22;;;0.43;100.00
75414;BME280;64758;52.122;5.404;2024-03-08T04:52:05;101861.94;;;0.41;100.00
75414;BME280;64758;52.122;5.404;2024-03-08T04:54:33;101852.31;;;0.42;100.00
75414;BME280;64758;52.122;5.404;2024-03-08T04:57:01;101849.81;;;0.40;100.00
75414;BME280;64758;52.122;5.404;2024-03-08T04:59:32;101855.03;;;0.40;100.00
75414;BME280;64758;52.122;5.404;2024-03-08T05:01:58;101855.13;;;0.39;100.00
75414;BME280;64758;52.122;5.404;2024-03-08T05:04:25;101850.00;;;0.37;100.00
75414;BME280;64758;52.122;5.404;2024-03-08T05:06:52;101849.16;;;0.37;100.00
75414;BME280;64758;52.122;5.404;2024-03-08T05:09:20;101850.00;;;0.37;100.00
75414;BME280;64758;52.122;5.404;2024-03-08T05:11:47;101845.53;;;0.39;100.00
75414;BME280;64758;52.122;5.404;2024-03-08T05:14:14;101850.75;;;0.39;100.00
75414;BME280;64758;52.122;5.404;2024-03-08T05:16:47;101850.00;;;0.37;100.00
75414;BME280;64758;52.122;5.404;2024-03-08T05:19:20;101848.34;;;0.36;100.00
75414;BME280;64758;52.122;5.404;2024-03-08T05:21:49;101844.13;;;0.34;100.00
75414;BME280;64758;52.122;5.404;2024-03-08T05:24:17;101849.28;;;0.35;100.00
75414;BME280;64758;52.122;5.404;2024-03-08T05:26:45;101847.69;;;0.33;100.00
75414;BME280;64758;52.122;5.404;2024-03-08T05:29:12;101841.63;;;0.32;100.00
75414;BME280;64758;52.122;5.404;2024-03-08T05:31:48;101838.28;;;0.30;100.00
75414;BME280;64758;52.122;5.404;2024-03-08T05:34:18;101837.34;;;0.31;100.00
75414;BME280;64758;52.122;5.404;2024-03-08T05:36:46;101838.06;;;0.33;100.00
75414;BME280;64758;52.122;5.404;2024-03-08T05:39:13;101832.94;;;0.32;100.00
75414;BME280;64758;52.122;5.404;2024-03-08T05:41:40;101828.75;;;0.29;100.00
75414;BME280;64758;52.122;5.404;2024-03-08T05:44:08;101831.38;;;0.29;100.00
75414;BME280;64758;52.122;5.404;2024-03-08T05:46:35;101829.69;;;0.28;100.00
75414;BME280;64758;52.122;5.404;2024-03-08T05:49:07;101824.66;;;0.25;100.00
75414;BME280;64758;52.122;5.404;2024-03-08T05:51:38;101836.78;;;0.26;100.00
75414;BME280;64758;52.122;5.404;2024-03-08T05:54:08;101825.47;;;0.26;100.00
75414;BME280;64758;52.122;5.404;2024-03-08T05:56:40;101821.31;;;0.23;100.00
75414;BME280;64758;52.122;5.404;2024-03-08T05:59:12;101820.38;;;0.24;100.00
75414;BME280;64758;52.122;5.404;2024-03-08T06:01:39;101818.50;;;0.26;100.00
75414;BME280;64758;52.122;5.404;2024-03-08T06:04:08;101803.78;;;0.25;100.00
75414;BME280;64758;52.122;5.404;2024-03-08T06:06:37;101803.66;;;0.27;100.00
75414;BME280;64758;52.122;5.404;2024-03-08T06:09:07;101808.06;;;0.26;100.00
75414;BME280;64758;52.122;5.404;2024-03-08T06:11:39;101806.38;;;0.25;100.00
75414;BME280;64758;52.122;5.404;2024-03-08T06:14:06;101804.59;;;0.26;100.00
75414;BME280;64758;52.122;5.404;2024-03-08T06:16:33;101801.91;;;0.27;100.00
75414;BME280;64758;52.122;5.404;2024-03-08T06:19:00;101807.13;;;0.27;100.00
75414;BME280;64758;52.122;5.404;2024-03-08T06:21:28;101801.97;;;0.26;100.00
75414;BME280;64758;52.122;5.404;2024-03-08T06:23:55;101809.72;;;0.27;100.00
75414;BME280;64758;52.122;5.404;2024-03-08T06:26:24;101812.97;;;0.31;100.00
75414;BME280;64758;52.122;5.404;2024-03-08T06:28:55;101801.59;;;0.32;100.00
75414;BME280;64758;52.122;5.404;2024-03-08T06:31:22;101808.28;;;0.36;100.00
75414;BME280;64758;52.122;5.404;2024-03-08T06:33:49;101814.38;;;0.36;100.00
75414;BME280;64758;52.122;5.404;2024-03-08T06:36:17;101804.66;;;0.38;100.00
75414;BME280;64758;52.122;5.404;2024-03-08T06:38:48;101802.13;;;0.37;100.00
75414;BME280;64758;52.122;5.404;2024-03-08T06:41:16;101803.81;;;0.38;100.00
75414;BME280;64758;52.122;5.404;2024-03-08T06:43:44;101805.28;;;0.42;100.00
75414;BME280;64758;52.122;5.404;2024-03-08T06:46:11;101799.06;;;0.44;100.00
75414;BME280;64758;52.122;5.404;2024-03-08T06:48:39;101795.31;;;0.48;100.00
75414;BME280;64758;52.122;5.404;2024-03-08T06:51:06;101797.81;;;0.50;100.00
75414;BME280;64758;52.122;5.404;2024-03-08T06:53:33;101797.53;;;0.54;100.00
75414;BME280;64758;52.122;5.404;2024-03-08T06:56:05;101792.84;;;0.59;100.00
75414;BME280;64758;52.122;5.404;2024-03-08T06:58:31;101794.31;;;0.63;100.00
75414;BME280;64758;52.122;5.404;2024-03-08T07:00:59;101794.19;;;0.65;100.00
75414;BME280;64758;52.122;5.404;2024-03-08T07:03:27;101788.03;;;0.66;100.00
75414;BME280;64758;52.122;5.404;2024-03-08T07:05:56;101791.09;;;0.72;100.00
75414;BME280;64758;52.122;5.404;2024-03-08T07:08:26;101793.31;;;0.78;100.00
75414;BME280;64758;52.122;5.404;2024-03-08T07:10:54;101789.56;;;0.82;100.00
75414;BME280;64758;52.122;5.404;2024-03-08T07:13:21;101791.84;;;0.87;100.00
75414;BME280;64758;52.122;5.404;2024-03-08T07:15:47;101786.34;;;0.91;100.00
75414;BME280;64758;52.122;5.404;2024-03-08T07:18:14;101795.31;;;1.00;100.00
75414;BME280;64758;52.122;5.404;2024-03-08T07:20:42;101790.75;;;1.03;100.00
75414;BME280;64758;52.122;5.404;2024-03-08T07:23:10;101791.28;;;1.08;100.00
75414;BME280;64758;52.122;5.404;2024-03-08T07:25:37;101789.19;;;1.13;100.00
75414;BME280;64758;52.122;5.404;2024-03-08T07:28:06;101776.72;;;1.17;100.00
75414;BME280;64758;52.122;5.404;2024-03-08T07:30:37;101770.13;;;1.23;100.00
75414;BME280;64758;52.122;5.404;2024-03-08T07:33:11;101768.88;;;1.29;100.00
75414;BME280;64758;52.122;5.404;2024-03-08T07:35:41;101761.53;;;1.34;100.00
75414;BME280;64758;52.122;5.404;2024-03-08T07:38:11;101765.31;;;1.42;100.00
75414;BME280;64758;52.122;5.404;2024-03-08T07:40:39;101761.56;;;1.46;100.00
75414;BME280;64758;52.122;5.404;2024-03-08T07:43:12;101752.22;;;1.55;100.00
75414;BME280;64758;52.122;5.404;2024-03-08T07:45:39;101757.03;;;1.61;100.00
75414;BME280;64758;52.122;5.404;2024-03-08T07:48:06;101754.84;;;1.67;100.00
75414;BME280;64758;52.122;5.404;2024-03-08T07:50:40;101746.44;;;1.75;100.00
75414;BME280;64758;52.122;5.404;2024-03-08T07:53:07;101747.66;;;1.82;100.00
75414;BME280;64758;52.122;5.404;2024-03-08T07:55:35;101741.06;;;1.89;100.00
75414;BME280;64758;52.122;5.404;2024-03-08T07:58:03;101742.41;;;1.94;100.00
75414;BME280;64758;52.122;5.404;2024-03-08T08:00:30;101749.72;;;2.02;100.00
75414;BME280;64758;52.122;5.404;2024-03-08T08:02:58;101739.66;;;2.08;100.00
75414;BME280;64758;52.122;5.404;2024-03-08T08:05:25;101730.41;;;2.15;100.00
75414;BME280;64758;52.122;5.404;2024-03-08T08:07:52;101733.41;;;2.22;100.00
75414;BME280;64758;52.122;5.404;2024-03-08T08:10:20;101727.72;;;2.28;100.00
75414;BME280;64758;52.122;5.404;2024-03-08T08:12:52;101718.56;;;2.33;100.00
75414;BME280;64758;52.122;5.404;2024-03-08T08:15:18;101723.38;;;2.39;100.00
75414;BME280;64758;52.122;5.404;2024-03-08T08:17:45;101721.03;;;2.47;100.00
75414;BME280;64758;52.122;5.404;2024-03-08T08:20:12;101714.47;;;2.52;100.00
75414;BME280;64758;52.122;5.404;2024-03-08T08:22:42;101709.28;;;2.63;100.00
75414;BME280;64758;52.122;5.404;2024-03-08T08:25:12;101711.44;;;2.69;100.00
75414;BME280;64758;52.122;5.404;2024-03-08T08:27:40;101711.69;;;2.77;100.00
75414;BME280;64758;52.122;5.404;2024-03-08T08:30:07;101705.75;;;2.86;100.00
75414;BME280;64758;52.122;5.404;2024-03-08T08:32:35;101697.53;;;2.91;100.00
75414;BME280;64758;52.122;5.404;2024-03-08T08:35:06;101700.31;;;3.00;100.00
75414;BME280;64758;52.122;5.404;2024-03-08T08:37:32;101694.59;;;3.06;100.00
75414;BME280;64758;52.122;5.404;2024-03-08T08:40:02;101683.63;;;3.12;100.00
75414;BME280;64758;52.122;5.404;2024-03-08T08:42:36;101684.81;;;3.19;99.45
75414;BME280;64758;52.122;5.404;2024-03-08T08:45:05;101685.78;;;3.29;99.17
75414;BME280;64758;52.122;5.404;2024-03-08T08:47:42;101680.88;;;3.36;99.12
75414;BME280;64758;52.122;5.404;2024-03-08T08:50:09;101683.72;;;3.44;98.49
75414;BME280;64758;52.122;5.404;2024-03-08T08:52:39;101671.69;;;3.52;98.22
75414;BME280;64758;52.122;5.404;2024-03-08T08:55:06;101673.69;;;3.60;97.70
75414;BME280;64758;52.122;5.404;2024-03-08T08:57:33;101679.78;;;3.71;97.26
75414;BME280;64758;52.122;5.404;2024-03-08T08:59:59;101674.84;;;3.77;96.99
75414;BME280;64758;52.122;5.404;2024-03-08T09:02:27;101671.88;;;3.82;96.68
75414;BME280;64758;52.122;5.404;2024-03-08T09:04:53;101669.19;;;3.93;96.08
75414;BME280;64758;52.122;5.404;2024-03-08T09:07:20;101666.94;;;3.99;95.20
75414;BME280;64758;52.122;5.404;2024-03-08T09:09:48;101664.63;;;4.06;95.33
75414;BME280;64758;52.122;5.404;2024-03-08T09:12:15;101656.25;;;4.12;94.87
75414;BME280;64758;52.122;5.404;2024-03-08T09:14:42;101657.75;;;4.25;94.73
75414;BME280;64758;52.122;5.404;2024-03-08T09:17:09;101653.91;;;4.29;94.43
75414;BME280;64758;52.122;5.404;2024-03-08T09:19:35;101649.13;;;4.34;93.64
75414;BME280;64758;52.122;5.404;2024-03-08T09:22:04;101636.28;;;4.41;92.66
75414;BME280;64758;52.122;5.404;2024-03-08T09:24:30;101640.50;;;4.53;92.57
75414;BME280;64758;52.122;5.404;2024-03-08T09:26:57;101633.53;;;4.63;92.09
75414;BME280;64758;52.122;5.404;2024-03-08T09:29:27;101628.19;;;4.74;92.02
75414;BME280;64758;52.122;5.404;2024-03-08T09:31:54;101625.38;;;4.86;91.30
75414;BME280;64758;52.122;5.404;2024-03-08T09:34:21;101626.09;;;4.97;91.00
75414;BME280;64758;52.122;5.404;2024-03-08T09:36:57;101614.34;;;5.01;89.39
75414;BME280;64758;52.122;5.404;2024-03-08T09:39:24;101606.47;;;5.11;89.97
75414;BME280;64758;52.122;5.404;2024-03-08T09:41:53;101610.84;;;5.21;89.79
75414;BME280;64758;52.122;5.404;2024-03-08T09:44:22;101604.78;;;5.30;89.17
75414;BME280;64758;52.122;5.404;2024-03-08T09:46:53;101597.47;;;5.43;89.17
75414;BME280;64758;52.122;5.404;2024-03-08T09:49:20;101599.16;;;5.63;89.07
75414;BME280;64758;52.122;5.404;2024-03-08T09:51:47;101589.31;;;5.75;87.84
75414;BME280;64758;52.122;5.404;2024-03-08T09:54:16;101597.72;;;5.89;88.39
75414;BME280;64758;52.122;5.404;2024-03-08T09:56:51;101578.72;;;5.95;86.76
75414;BME280;64758;52.122;5.404;2024-03-08T09:59:18;101576.63;;;5.99;85.95
75414;BME280;64758;52.122;5.404;2024-03-08T10:01:54;101570.66;;;6.06;85.78
75414;BME280;64758;52.122;5.404;2024-03-08T10:04:25;101567.59;;;6.20;85.01
75414;BME280;64758;52.122;5.404;2024-03-08T10:06:55;101572.03;;;6.29;84.57
75414;BME280;64758;52.122;5.404;2024-03-08T10:09:23;101559.50;;;6.40;84.68
75414;BME280;64758;52.122;5.404;2024-03-08T10:11:55;101556.25;;;6.56;83.77
75414;BME280;64758;52.122;5.404;2024-03-08T10:14:22;101556.53;;;6.62;82.68
75414;BME280;64758;52.122;5.404;2024-03-08T10:16:49;101558.84;;;6.75;82.82
75414;BME280;64758;52.122;5.404;2024-03-08T10:19:16;101550.22;;;6.82;82.22
75414;BME280;64758;52.122;5.404;2024-03-08T10:21:50;101536.16;;;6.91;81.63
75414;BME280;64758;52.122;5.404;2024-03-08T10:24:18;101531.09;;;6.98;81.57
75414;BME280;64758;52.122;5.404;2024-03-08T10:26:45;101529.81;;;7.11;80.55
75414;BME280;64758;52.122;5.404;2024-03-08T10:29:12;101525.34;;;7.12;79.94
75414;BME280;64758;52.122;5.404;2024-03-08T10:31:45;101525.13;;;7.23;80.31
75414;BME280;64758;52.122;5.404;2024-03-08T10:34:12;101505.91;;;7.30;80.26
75414;BME280;64758;52.122;5.404;2024-03-08T10:36:40;101512.19;;;7.47;79.59
75414;BME280;64758;52.122;5.404;2024-03-08T10:39:25;101503.34;;;7.55;79.19
75414;BME280;64758;52.122;5.404;2024-03-08T10:42:03;101498.00;;;7.65;77.72
75414;BME280;64758;52.122;5.404;2024-03-08T10:49:51;101479.91;;;7.95;76.72
75414;BME280;64758;52.122;5.404;2024-03-08T10:52:20;101472.72;;;8.05;75.91
75414;BME280;64758;52.122;5.404;2024-03-08T10:54:48;101479.13;;;8.20;75.88
75414;BME280;64758;52.122;5.404;2024-03-08T10:57:18;101475.88;;;8.26;75.06
75414;BME280;64758;52.122;5.404;2024-03-08T10:59:48;101464.13;;;8.29;74.84
75414;BME280;64758;52.122;5.404;2024-03-08T11:02:17;101459.19;;;8.34;73.88
75414;BME280;64758;52.122;5.404;2024-03-08T11:04:49;101453.44;;;8.38;73.32
75414;BME280;64758;52.122;5.404;2024-03-08T11:07:17;101445.56;;;8.46;74.21
75414;BME280;64758;52.122;5.404;2024-03-08T11:09:49;101439.47;;;8.54;73.60
75414;BME280;64758;52.122;5.404;2024-03-08T11:12:28;101437.34;;;8.57;72.58
75414;BME280;64758;52.122;5.404;2024-03-08T11:15:03;101434.84;;;8.56;71.57
75414;BME280;64758;52.122;5.404;2024-03-08T11:20:17;101419.78;;;8.56;71.01
75414;BME280;64758;52.122;5.404;2024-03-08T11:22:54;101416.81;;;8.59;70.86
75414;BME280;64758;52.122;5.404;2024-03-08T11:25:38;101399.59;;;8.55;70.87
75414;BME280;64758;52.122;5.404;2024-03-08T11:28:09;101398.97;;;8.61;70.59
75414;BME280;64758;52.122;5.404;2024-03-08T11:30:37;101405.28;;;8.68;71.24
75414;BME280;64758;52.122;5.404;2024-03-08T11:33:04;101388.09;;;8.80;71.81
75414;BME280;64758;52.122;5.404;2024-03-08T11:35:31;101381.50;;;8.92;71.17
75414;BME280;64758;52.122;5.404;2024-03-08T11:37:59;101377.84;;;9.01;69.11
75414;BME280;64758;52.122;5.404;2024-03-08T11:40:29;101372.75;;;9.07;69.49
75414;BME280;64758;52.122;5.404;2024-03-08T11:42:56;101360.00;;;9.19;69.27
75414;BME280;64758;52.122;5.404;2024-03-08T11:45:23;101356.38;;;9.28;69.25
75414;BME280;64758;52.122;5.404;2024-03-08T11:47:49;101360.66;;;9.45;67.31
75414;BME280;64758;52.122;5.404;2024-03-08T11:50:17;101350.06;;;9.53;66.35
75414;BME280;64758;52.122;5.404;2024-03-08T11:52:47;101340.28;;;9.61;66.81
75414;BME280;64758;52.122;5.404;2024-03-08T11:55:14;101332.34;;;9.61;65.96
75414;BME280;64758;52.122;5.404;2024-03-08T11:57:41;101332.34;;;9.61;66.72
75414;BME280;64758;52.122;5.404;2024-03-08T12:00:19;101331.47;;;9.69;66.40
75414;BME280;64758;52.122;5.404;2024-03-08T12:03:03;101321.84;;;9.84;65.92
75414;BME280;64758;52.122;5.404;2024-03-08T12:05:30;101323.47;;;10.01;64.56
75414;BME280;64758;52.122;5.404;2024-03-08T12:08:01;101319.81;;;10.10;63.51
75414;BME280;64758;52.122;5.404;2024-03-08T12:10:29;101315.69;;;10.07;62.10
75414;BME280;64758;52.122;5.404;2024-03-08T12:12:58;101315.84;;;10.06;63.77
75414;BME280;64758;52.122;5.404;2024-03-08T12:15:29;101310.00;;;10.18;63.20
75414;BME280;64758;52.122;5.404;2024-03-08T12:17:59;101303.97;;;10.24;63.09
75414;BME280;64758;52.122;5.404;2024-03-08T12:20:28;101296.16;;;10.30;62.51
75414;BME280;64758;52.122;5.404;2024-03-08T12:22:56;101309.94;;;10.26;62.20
75414;BME280;64758;52.122;5.404;2024-03-08T12:25:31;101298.16;;;10.28;62.31
75414;BME280;64758;52.122;5.404;2024-03-08T12:28:07;101292.06;;;10.20;62.17
75414;BME280;64758;52.122;5.404;2024-03-08T12:30:46;101292.19;;;10.26;62.43
75414;BME280;64758;52.122;5.404;2024-03-08T12:33:13;101286.00;;;10.34;62.31
75414;BME280;64758;52.122;5.404;2024-03-08T12:35:40;101279.22;;;10.31;60.87
75414;BME280;64758;52.122;5.404;2024-03-08T12:38:07;101274.91;;;10.30;61.84
75414;BME280;64758;52.122;5.404;2024-03-08T12:40:34;101270.91;;;10.34;61.33
75414;BME280;64758;52.122;5.404;2024-03-08T12:43:03;101259.28;;;10.35;61.09
75414;BME280;64758;52.122;5.404;2024-03-08T12:45:30;101255.28;;;10.39;61.87
75414;BME280;64758;52.122;5.404;2024-03-08T12:47:56;101250.59;;;10.49;61.41
75414;BME280;64758;52.122;5.404;2024-03-08T12:50:23;101251.41;;;10.50;60.73
75414;BME280;64758;52.122;5.404;2024-03-08T12:52:53;101249.28;;;10.45;60.61
75414;BME280;64758;52.122;5.404;2024-03-08T12:55:20;101251.28;;;10.43;61.39
75414;BME280;64758;52.122;5.404;2024-03-08T12:57:47;101244.97;;;10.44;61.59
75414;BME280;64758;52.122;5.404;2024-03-08T13:00:15;101237.81;;;10.45;60.59
75414;BME280;64758;52.122;5.404;2024-03-08T13:02:50;101233.00;;;10.48;60.57
75414;BME280;64758;52.122;5.404;2024-03-08T13:05:18;101242.91;;;10.54;60.29
75414;BME280;64758;52.122;5.404;2024-03-08T13:07:45;101235.34;;;10.66;60.43